Time;durP1;ratioP1;P1;durP2;ratioP2;P2;SDS_P1;SDS_P2;PMS_P1;PMS_P2;Temp;Humidity;BMP_temperature;BMP_pressure;BME280_temperature;BME280_humidity;BME280_pressure;Samples;Min_cycle;Max_cycle;Signal;HPM_P1;HPM_P2
2022/04/01 00:00:05;;;;;;;2.17;0.80;;;;;;;0.80;63.01;100633.66;4964285;28;20054;-76
2022/04/01 00:02:38;;;;;;;2.50;1.00;;;;;;;0.84;63.16;100634.31;4966933;28;20065;-79
2022/04/01 00:05:04;;;;;;;4.03;1.00;;;;;;;0.70;64.15;100625.59;4957173;28;20035;-79
2022/04/01 00:07:30;;;;;;;4.72;1.13;;;;;;;0.61;63.66;100615.78;4949725;28;20035;-78
2022/04/01 00:09:56;;;;;;;2.70;0.90;;;;;;;0.69;62.93;100621.34;4944653;28;20031;-78
2022/04/01 00:12:22;;;;;;;4.43;1.20;;;;;;;0.77;64.37;100636.41;4971352;28;20050;-77
2022/04/01 00:14:48;;;;;;;3.08;1.30;;;;;;;0.74;63.00;100637.41;4951653;28;20047;-79
2022/04/01 00:17:13;;;;;;;6.07;1.27;;;;;;;0.77;64.13;100639.00;4965925;28;20038;-80
2022/04/01 00:19:39;;;;;;;4.05;1.15;;;;;;;0.83;63.16;100637.81;4962544;28;20062;-82
2022/04/01 00:22:06;;;;;;;4.88;1.30;;;;;;;0.75;64.91;100636.50;4951931;28;20101;-80
2022/04/01 00:24:32;;;;;;;2.95;1.10;;;;;;;0.70;64.65;100638.50;4943345;28;20370;-80
2022/04/01 00:26:58;;;;;;;4.70;1.30;;;;;;;0.67;64.99;100630.94;4950197;28;20039;-79
2022/04/01 00:29:24;;;;;;;4.32;1.02;;;;;;;0.62;64.64;100621.78;4983402;28;20488;-81
2022/04/01 00:32:01;;;;;;;3.28;1.08;;;;;;;0.73;64.08;100632.34;4928613;28;20073;-79
2022/04/01 00:34:28;;;;;;;4.95;1.20;;;;;;;0.76;63.59;100638.16;4965351;28;20061;-77
2022/04/01 00:36:55;;;;;;;3.15;1.15;;;;;;;0.76;63.23;100627.84;4953198;28;20065;-78
2022/04/01 00:39:23;;;;;;;7.65;1.33;;;;;;;0.70;65.25;100632.53;4978054;28;20026;-79
2022/04/01 00:41:50;;;;;;;4.22;1.55;;;;;;;0.71;64.07;100631.59;4952460;28;20043;-80
2022/04/01 00:44:21;;;;;;;3.10;1.00;;;;;;;0.71;64.54;100635.00;4930883;28;20113;-78
2022/04/01 00:46:50;;;;;;;3.05;1.05;;;;;;;0.69;65.52;100625.69;4934498;28;20034;-79
2022/04/01 00:49:18;;;;;;;2.38;0.95;;;;;;;0.71;65.13;100636.75;4950593;28;20097;-78
2022/04/01 00:51:45;;;;;;;1.95;1.25;;;;;;;0.72;63.60;100630.69;4949672;28;20098;-78
2022/04/01 00:54:12;;;;;;;5.68;1.35;;;;;;;0.69;64.63;100631.66;4967823;28;20035;-78
2022/04/01 00:56:39;;;;;;;2.47;1.10;;;;;;;0.68;65.60;100634.34;4942112;28;20523;-80
2022/04/01 00:59:07;;;;;;;4.07;1.23;;;;;;;0.65;64.39;100625.03;4952612;28;20043;-78
2022/04/01 01:01:34;;;;;;;4.05;1.17;;;;;;;0.71;64.59;100636.75;4966047;28;20035;-79
2022/04/01 01:04:05;;;;;;;4.93;1.48;;;;;;;0.70;64.13;100633.34;4955070;28;20039;-76
2022/04/01 01:06:33;;;;;;;4.22;1.10;;;;;;;0.70;65.22;100640.28;4979106;28;20035;-79
2022/04/01 01:09:02;;;;;;;4.68;1.38;;;;;;;0.62;64.84;100619.19;4937964;28;20598;-80
2022/04/01 01:11:27;;;;;;;3.33;0.95;;;;;;;0.67;65.22;100630.94;4960940;28;20057;-80
2022/04/01 01:13:53;;;;;;;4.30;1.13;;;;;;;0.64;66.42;100619.94;4932058;28;20423;-78
2022/04/01 01:16:19;;;;;;;4.82;1.40;;;;;;;0.63;65.61;100618.28;4934382;28;20043;-79
2022/04/01 01:18:46;;;;;;;3.65;1.33;;;;;;;0.63;66.67;100615.72;4959703;28;20031;-80
2022/04/01 01:21:11;;;;;;;4.82;1.17;;;;;;;0.55;67.67;100623.88;4951988;28;20073;-79
2022/04/01 01:23:38;;;;;;;3.70;1.00;;;;;;;0.65;66.37;100619.03;4949349;28;20081;-79
2022/04/01 01:26:03;;;;;;;3.30;1.20;;;;;;;0.58;67.30;100614.22;4948682;28;20039;-81
2022/04/01 01:28:30;;;;;;;2.53;1.10;;;;;;;0.52;67.98;100605.97;4953033;28;20031;-79
2022/04/01 01:30:57;;;;;;;5.13;1.10;;;;;;;0.56;68.62;100618.63;4966018;28;20039;-79
2022/04/01 01:33:25;;;;;;;5.53;1.27;;;;;;;0.65;67.55;100622.44;4959309;28;20070;-78
2022/04/01 01:35:51;;;;;;;4.05;1.10;;;;;;;0.57;69.14;100612.53;4955185;28;20117;-81
2022/04/01 01:38:17;;;;;;;5.70;1.20;;;;;;;0.57;68.13;100614.31;4989812;28;20027;-78
2022/04/01 01:40:44;;;;;;;4.30;1.25;;;;;;;0.47;68.82;100603.66;4969086;28;20027;-81
2022/04/01 01:43:09;;;;;;;5.10;1.10;;;;;;;0.54;68.38;100607.53;4953480;28;21177;-80
2022/04/01 01:45:35;;;;;;;4.22;1.33;;;;;;;0.52;68.85;100608.56;4970694;28;20039;-79
2022/04/01 01:48:01;;;;;;;5.07;1.17;;;;;;;0.47;69.46;100608.81;4953762;28;20219;-81
2022/04/01 01:55:55;;;;;;;6.03;1.30;;;;;;;0.53;70.03;100608.47;4962747;28;20034;-80
2022/04/01 01:58:24;;;;;;;5.20;1.23;;;;;;;0.52;69.30;100611.13;4959515;28;20070;-78
2022/04/01 02:00:49;;;;;;;4.20;1.10;;;;;;;0.51;69.15;100612.91;4957151;28;20035;-79
2022/04/01 02:03:15;;;;;;;3.28;1.25;;;;;;;0.47;69.39;100601.09;4945838;28;20035;-79
2022/04/01 02:05:41;;;;;;;5.68;1.27;;;;;;;0.53;69.48;100610.22;4950161;28;20101;-78
2022/04/01 02:08:07;;;;;;;2.30;1.35;;;;;;;0.53;70.07;100607.66;4962923;28;20038;-79
2022/04/01 02:10:33;;;;;;;2.63;1.20;;;;;;;0.45;70.31;100605.47;4964041;28;20403;-79
2022/04/01 02:13:00;;;;;;;3.85;0.90;;;;;;;0.47;70.32;100600.22;4936753;28;20069;-78
2022/04/01 02:15:26;;;;;;;3.65;1.20;;;;;;;0.37;71.40;100597.31;4934218;28;20500;-79
2022/04/01 02:17:51;;;;;;;3.75;1.10;;;;;;;0.45;70.59;100614.97;4940860;28;20117;-79
2022/04/01 02:20:17;;;;;;;4.55;1.05;;;;;;;0.47;70.79;100610.56;4946627;28;20035;-79
2022/04/01 02:22:44;;;;;;;3.55;1.00;;;;;;;0.46;70.83;100601.16;4954556;28;20042;-78
2022/04/01 02:25:11;;;;;;;1.80;0.73;;;;;;;0.43;70.38;100601.31;4935144;28;20491;-80
2022/04/01 02:27:38;;;;;;;3.05;1.10;;;;;;;0.44;70.34;100608.97;4953474;28;20031;-77
2022/04/01 02:30:11;;;;;;;6.95;1.38;;;;;;;0.39;71.31;100600.66;4938922;28;20035;-79
2022/04/01 02:32:58;;;;;;;3.58;1.00;;;;;;;0.41;71.87;100611.72;4977682;28;20101;-78
2022/04/01 02:35:43;;;;;;;1.17;0.82;;;;;;;0.44;70.39;100610.75;4973124;28;20049;-78
2022/04/01 02:38:09;;;;;;;2.70;0.90;;;;;;;0.48;70.77;100610.47;4964414;28;20089;-78
2022/04/01 02:40:34;;;;;;;4.32;0.88;;;;;;;0.40;71.11;100612.66;4954121;28;20039;-79
2022/04/01 02:43:02;;;;;;;8.43;1.10;;;;;;;0.47;70.76;100615.72;4941249;28;20035;-78
2022/04/01 02:45:29;;;;;;;2.53;0.80;;;;;;;0.44;70.94;100613.31;4955342;28;20069;-78
2022/04/01 02:47:56;;;;;;;2.17;0.85;;;;;;;0.41;70.05;100608.31;4956389;28;20031;-79
2022/04/01 02:50:26;;;;;;;3.83;0.70;;;;;;;0.47;70.52;100616.56;4954430;28;20062;-78
2022/04/01 02:52:52;;;;;;;3.45;1.00;;;;;;;0.42;70.49;100615.16;4943329;28;20113;-78
2022/04/01 02:55:17;;;;;;;4.43;0.90;;;;;;;0.41;70.72;100619.47;4952107;28;20031;-78
2022/04/01 02:57:44;;;;;;;2.25;0.70;;;;;;;0.43;70.62;100616.81;4970826;28;20039;-78
2022/04/01 03:00:10;;;;;;;4.35;0.80;;;;;;;0.43;70.04;100616.81;4941339;28;20155;-78
2022/04/01 03:02:44;;;;;;;3.08;0.90;;;;;;;0.39;70.65;100616.13;4967191;28;20034;-77
2022/04/01 03:05:10;;;;;;;2.30;0.70;;;;;;;0.39;69.55;100608.41;4954895;28;20490;-79
2022/04/01 03:07:36;;;;;;;2.85;0.90;;;;;;;0.40;69.83;100617.81;4956573;28;20139;-76
2022/04/01 03:10:02;;;;;;;4.30;1.10;;;;;;;0.36;70.48;100619.72;4956216;28;20038;-78
2022/04/01 03:12:31;;;;;;;6.72;0.90;;;;;;;0.43;70.43;100611.66;4965017;28;20535;-76
2022/04/01 03:15:10;;;;;;;5.88;1.27;;;;;;;0.41;69.77;100611.72;4930018;28;20039;-79
2022/04/01 03:17:58;;;;;;;2.78;1.02;;;;;;;0.43;69.37;100614.22;4958800;28;20034;-78
2022/04/01 03:20:35;;;;;;;4.07;1.00;;;;;;;0.47;69.27;100636.34;4940842;28;20034;-79
2022/04/01 03:23:02;;;;;;;5.10;0.95;;;;;;;0.41;69.38;100622.03;4936511;28;20496;-81
2022/04/01 03:25:34;;;;;;;2.97;0.90;;;;;;;0.44;69.69;100624.47;4968991;28;20221;-79
2022/04/01 03:28:23;;;;;;;4.68;1.00;;;;;;;0.45;69.95;100627.88;4949751;28;20123;-78
2022/04/01 03:30:54;;;;;;;2.30;1.20;;;;;;;0.41;70.16;100627.22;4962290;28;20070;-78
2022/04/01 03:33:25;;;;;;;2.60;1.13;;;;;;;0.42;68.86;100621.16;4966016;28;20509;-78
2022/04/01 03:35:51;;;;;;;2.92;1.30;;;;;;;0.45;68.52;100620.13;4942940;28;20499;-77
2022/04/01 03:38:22;;;;;;;6.45;1.38;;;;;;;0.46;68.45;100640.69;4939794;28;20037;-78
2022/04/01 03:40:51;;;;;;;3.97;1.27;;;;;;;0.51;67.79;100636.13;4939419;29;20039;-78
2022/04/01 03:43:21;;;;;;;3.72;1.40;;;;;;;0.52;68.07;100640.34;4936717;28;20047;-77
2022/04/01 03:45:49;;;;;;;2.70;1.33;;;;;;;0.50;68.68;100642.19;4958809;28;20039;-79
2022/04/01 03:48:40;;;;;;;5.63;1.30;;;;;;;0.50;67.99;100642.19;4952640;28;20085;-77
2022/04/01 03:51:06;;;;;;;6.60;1.42;;;;;;;0.44;68.15;100645.13;4961468;28;20584;-79
2022/04/01 03:53:40;;;;;;;9.98;1.48;;;;;;;0.46;68.05;100651.03;4962879;28;20050;-79
2022/04/01 03:56:12;;;;;;;5.50;1.30;;;;;;;0.45;67.68;100645.94;4932664;28;20045;-78
2022/04/01 03:59:17;;;;;;;5.95;1.58;;;;;;;0.48;68.53;100638.88;4967590;28;20808;-78
2022/04/01 04:01:43;;;;;;;4.00;1.33;;;;;;;0.49;68.78;100650.88;4950108;28;20035;-77
2022/04/01 04:04:09;;;;;;;3.00;1.50;;;;;;;0.44;68.90;100637.38;4970023;28;20027;-77
2022/04/01 04:06:37;;;;;;;6.20;1.40;;;;;;;0.46;68.21;100650.19;4952401;28;20085;-79
2022/04/01 04:09:03;;;;;;;9.18;1.83;;;;;;;0.52;69.15;100665.34;4945974;28;20042;-78
2022/04/01 04:11:32;;;;;;;5.93;1.75;;;;;;;0.55;68.96;100657.44;4966749;28;20058;-77
2022/04/01 04:14:10;;;;;;;5.28;1.58;;;;;;;0.53;69.50;100656.69;4952507;28;20030;-79
2022/04/01 04:16:45;;;;;;;4.60;1.50;;;;;;;0.49;68.89;100643.13;4971048;28;20042;-78
2022/04/01 04:19:14;;;;;;;6.80;1.70;;;;;;;0.55;69.28;100668.59;4955101;28;20034;-79
2022/04/01 04:22:11;;;;;;;3.08;1.48;;;;;;;0.60;70.09;100670.06;4982327;28;20051;-78
2022/04/01 04:24:52;;;;;;;6.30;1.83;;;;;;;0.56;70.45;100656.50;4970844;28;20034;-78
2022/04/01 04:27:25;;;;;;;4.82;1.77;;;;;;;0.55;71.11;100655.69;4943692;28;20038;-78
2022/04/01 04:29:52;;;;;;;5.47;1.80;;;;;;;0.48;72.23;100654.34;4964809;28;20046;-78
2022/04/01 04:32:38;;;;;;;6.78;1.85;;;;;;;0.58;72.23;100670.16;4952636;28;20778;-80
2022/04/01 04:35:07;;;;;;;5.30;1.83;;;;;;;0.58;72.42;100668.44;4936762;28;20039;-79
2022/04/01 04:37:42;;;;;;;3.30;2.20;;;;;;;0.54;72.61;100673.81;4950347;28;20039;-79
2022/04/01 04:40:10;;;;;;;4.63;1.77;;;;;;;0.52;73.11;100671.31;4951437;28;20039;-79
2022/04/01 04:42:37;;;;;;;5.82;1.92;;;;;;;0.48;74.01;100677.56;4966402;28;20031;-79
2022/04/01 04:45:04;;;;;;;4.43;1.92;;;;;;;0.55;74.19;100684.06;4973776;28;20033;-80
2022/04/01 04:47:33;;;;;;;3.95;2.03;;;;;;;0.62;74.83;100694.06;4964768;28;20508;-78
2022/04/01 04:50:01;;;;;;;9.27;2.15;;;;;;;0.54;74.73;100679.81;4946490;28;20096;-80
2022/04/01 04:52:32;;;;;;;5.20;1.90;;;;;;;0.60;74.97;100696.72;4952757;28;20038;-78
2022/04/01 04:55:03;;;;;;;6.30;2.08;;;;;;;0.61;75.47;100690.66;4942949;28;20056;-78
2022/04/01 04:57:38;;;;;;;4.93;2.30;;;;;;;0.61;75.61;100695.81;4956370;28;20031;-78
2022/04/01 05:00:06;;;;;;;7.32;2.50;;;;;;;0.61;75.70;100698.41;4957469;28;20129;-79
2022/04/01 05:03:01;;;;;;;7.32;2.17;;;;;;;0.70;75.43;100699.66;4981984;28;20027;-79
2022/04/01 05:05:37;;;;;;;4.55;2.30;;;;;;;0.66;75.33;100718.78;4955719;28;20051;-80
2022/04/01 05:08:50;;;;;;;9.23;2.42;;;;;;;0.68;76.37;100720.38;4967860;28;20050;-78
2022/04/01 05:11:44;;;;;;;6.05;2.28;;;;;;;0.68;76.06;100712.63;4946418;28;20038;-78
2022/04/01 05:14:26;;;;;;;6.55;2.47;;;;;;;0.65;76.02;100711.97;4957804;28;20058;-79
2022/04/01 05:17:02;;;;;;;9.65;2.90;;;;;;;0.71;76.18;100725.38;4955959;28;20053;-79
2022/04/01 05:19:31;;;;;;;7.80;2.65;;;;;;;0.70;76.12;100726.28;4953824;28;20049;-79
2022/04/01 05:22:02;;;;;;;8.07;2.60;;;;;;;0.72;76.36;100733.97;4953959;28;20062;-81
2022/04/01 05:24:45;;;;;;;8.68;2.05;;;;;;;0.70;77.10;100728.88;4951591;28;20395;-81
2022/04/01 05:27:23;;;;;;;8.55;2.60;;;;;;;0.69;76.72;100728.94;4953881;28;20035;-81
2022/04/01 05:30:13;;;;;;;5.40;2.10;;;;;;;0.75;76.47;100736.34;4954708;28;20041;-78
2022/04/01 05:33:06;;;;;;;4.68;2.53;;;;;;;0.76;76.70;100733.69;4968856;28;20041;-79
2022/04/01 05:35:36;;;;;;;6.13;2.60;;;;;;;0.76;75.99;100728.53;4964994;28;20098;-80
2022/04/01 05:38:04;;;;;;;6.60;2.95;;;;;;;0.81;76.78;100745.53;4948802;28;20388;-78
2022/04/01 05:40:31;;;;;;;6.15;2.50;;;;;;;0.79;76.21;100743.00;4960843;28;20444;-79
2022/04/01 05:43:01;;;;;;;6.38;2.80;;;;;;;0.87;75.48;100752.94;4949425;28;20039;-78
2022/04/01 05:45:46;;;;;;;7.53;2.70;;;;;;;0.86;76.42;100743.53;4956062;28;20381;-79
2022/04/01 05:48:17;;;;;;;6.97;2.80;;;;;;;0.84;77.83;100742.78;4963080;28;20062;-79
2022/04/01 05:50:43;;;;;;;10.55;3.00;;;;;;;0.87;77.15;100752.94;4970158;28;20043;-80
2022/04/01 05:53:10;;;;;;;8.07;2.70;;;;;;;0.94;75.93;100759.44;4956021;28;20105;-79
2022/04/01 05:55:54;;;;;;;8.95;3.13;;;;;;;0.89;74.98;100746.78;4969375;28;20396;-79
2022/04/01 05:58:20;;;;;;;6.80;2.53;;;;;;;0.94;75.72;100755.13;4954655;28;20034;-78
2022/04/01 06:01:16;;;;;;;4.85;2.55;;;;;;;0.96;76.32;100758.44;4971743;28;20043;-80
2022/04/01 06:03:49;;;;;;;11.05;3.22;;;;;;;0.97;76.28;100779.94;4952763;28;20023;-79
2022/04/01 06:06:28;;;;;;;;;;;;;;;1.01;76.53;100771.09;4962536;28;20643;-79
2022/04/01 06:09:03;;;;;;;5.80;3.10;;;;;;;1.02;76.35;100774.50;4955371;28;19929;-80
2022/04/01 06:11:56;;;;;;;;;;;;;;;1.07;76.51;100780.25;4971459;28;20097;-78
2022/04/01 06:14:53;;;;;;;6.47;2.97;;;;;;;1.03;77.37;100782.16;4969069;28;19918;-78
2022/04/01 06:18:00;;;;;;;8.70;3.25;;;;;;;1.08;77.30;100790.50;4960572;28;20062;-77
2022/04/01 06:20:27;;;;;;;8.75;3.10;;;;;;;1.04;77.51;100783.84;4958501;28;20400;-78
2022/04/01 06:23:22;;;;;;;6.03;2.50;;;;;;;1.13;77.59;100805.75;4944019;28;20042;-78
2022/04/01 06:25:56;;;;;;;5.30;2.58;;;;;;;1.17;77.69;100797.75;4938892;28;20513;-78
2022/04/01 06:28:25;;;;;;;9.38;3.10;;;;;;;1.19;78.08;100797.69;4969736;28;20257;-78
2022/04/01 06:31:02;;;;;;;10.07;3.00;;;;;;;1.17;77.57;100815.03;4938851;28;20053;-78
2022/04/01 06:34:10;;;;;;;7.55;3.00;;;;;;;1.20;77.65;100820.00;4954402;28;20038;-79
2022/04/01 06:37:03;;;;;;;7.40;2.53;;;;;;;1.29;77.94;100816.09;4966396;28;20039;-78
2022/04/01 06:39:40;;;;;;;4.38;2.50;;;;;;;1.30;78.14;100823.75;4950747;28;20531;-77
2022/04/01 06:42:09;;;;;;;6.97;2.90;;;;;;;1.24;77.91;100812.91;4966513;28;20126;-78
2022/04/01 06:45:09;;;;;;;10.43;2.92;;;;;;;1.39;78.59;100824.16;4971852;28;20041;-79
2022/04/01 06:47:53;;;;;;;7.93;2.47;;;;;;;1.34;77.95;100827.84;4965176;28;20154;-79
2022/04/01 06:50:21;;;;;;;6.38;2.90;;;;;;;1.35;77.84;100824.31;4954018;28;20436;-77
2022/04/01 06:53:05;;;;;;;5.93;2.63;;;;;;;1.45;78.45;100831.56;4961749;28;20044;-79
2022/04/01 06:55:49;;;;;;;5.18;2.97;;;;;;;1.42;77.78;100831.75;4980655;28;20061;-79
2022/04/01 06:58:26;;;;;;;7.03;2.70;;;;;;;1.52;77.36;100844.06;4941348;28;20121;-77
2022/04/01 07:00:59;;;;;;;11.55;2.92;;;;;;;1.52;77.58;100833.72;4936988;28;20078;-79
2022/04/01 07:03:26;;;;;;;4.82;2.40;;;;;;;1.54;77.51;100844.84;4936057;28;20118;-79
2022/04/01 07:05:51;;;;;;;6.75;3.00;;;;;;;1.50;77.51;100835.56;4947830;28;20062;-78
2022/04/01 07:08:17;;;;;;;6.50;2.70;;;;;;;1.53;78.44;100821.66;4968348;28;20037;-79
2022/04/01 07:10:45;;;;;;;4.22;2.47;;;;;;;1.69;78.33;100847.47;4969770;28;20054;-78
2022/04/01 07:13:11;;;;;;;6.40;2.72;;;;;;;1.59;76.90;100844.56;4936348;28;20073;-78
2022/04/01 07:15:39;;;;;;;6.30;2.75;;;;;;;1.71;78.64;100848.19;4965890;28;20067;-80
2022/04/01 07:18:06;;;;;;;4.55;2.45;;;;;;;1.80;78.65;100860.63;4940384;28;20043;-78
2022/04/01 07:20:32;;;;;;;7.57;2.80;;;;;;;1.97;78.18;100848.47;4966323;28;20082;-79
2022/04/01 07:22:58;;;;;;;8.95;2.67;;;;;;;1.77;78.60;100841.84;4945454;28;20082;-80
2022/04/01 07:25:24;;;;;;;7.18;2.80;;;;;;;1.83;78.39;100846.66;4947716;28;20568;-79
2022/04/01 07:27:50;;;;;;;11.30;2.90;;;;;;;1.83;78.31;100850.09;4952512;28;20081;-80
2022/04/01 07:30:17;;;;;;;9.27;2.72;;;;;;;1.88;77.37;100853.25;4944238;28;20049;-80
2022/04/01 07:32:43;;;;;;;6.63;2.72;;;;;;;1.95;77.73;100864.06;4970627;28;20073;-79
2022/04/01 07:35:11;;;;;;;10.05;3.40;;;;;;;1.85;77.39;100848.25;4961466;28;20042;-80
2022/04/01 07:37:37;;;;;;;8.10;3.13;;;;;;;1.98;77.30;100856.16;4978116;28;20114;-80
2022/04/01 07:40:05;;;;;;;7.45;2.75;;;;;;;1.92;76.66;100862.50;4944789;28;20112;-78
2022/04/01 07:42:31;;;;;;;6.25;2.42;;;;;;;2.12;77.13;100873.47;4967784;28;20102;-80
2022/04/01 07:44:57;;;;;;;6.25;2.53;;;;;;;2.18;77.30;100880.03;4955212;29;20062;-80
2022/04/01 07:47:24;;;;;;;7.63;3.17;;;;;;;2.18;76.08;100873.09;4965716;28;20121;-80
2022/04/01 07:49:51;;;;;;;6.88;3.10;;;;;;;2.22;75.72;100872.00;4944596;28;20053;-78
2022/04/01 07:52:18;;;;;;;9.43;3.03;;;;;;;2.21;74.18;100874.69;4953023;28;20035;-80
2022/04/01 07:54:44;;;;;;;6.72;2.60;;;;;;;2.23;74.75;100865.91;4941696;28;20058;-78
2022/04/01 07:57:12;;;;;;;4.13;2.58;;;;;;;2.32;74.65;100883.50;4967626;28;20117;-79
2022/04/01 07:59:39;;;;;;;5.45;2.75;;;;;;;2.39;73.17;100872.75;4955492;28;20039;-81
2022/04/01 08:02:06;;;;;;;7.75;2.65;;;;;;;2.45;72.90;100887.94;4936471;28;20463;-77
2022/04/01 08:04:32;;;;;;;10.05;2.70;;;;;;;2.46;73.05;100879.25;4955278;28;20030;-80
2022/04/01 08:06:58;;;;;;;3.85;2.35;;;;;;;2.51;70.71;100885.00;4949441;28;20069;-78
2022/04/01 08:09:25;;;;;;;4.68;2.30;;;;;;;2.44;72.30;100889.69;4953126;28;20045;-78
2022/04/01 08:11:52;;;;;;;4.82;2.35;;;;;;;2.55;72.70;100883.06;4963923;28;20034;-79
2022/04/01 08:14:18;;;;;;;6.50;2.38;;;;;;;2.72;71.54;100882.88;4938026;28;20038;-80
2022/04/01 08:16:45;;;;;;;6.60;2.50;;;;;;;2.42;69.53;100868.25;4938562;28;20065;-78
2022/04/01 08:19:11;;;;;;;8.77;2.70;;;;;;;2.64;70.41;100885.94;4951380;28;20038;-79
2022/04/01 08:21:37;;;;;;;6.15;2.60;;;;;;;2.71;69.37;100874.28;4957682;28;20074;-78
2022/04/01 08:24:04;;;;;;;9.30;2.88;;;;;;;2.81;69.64;100891.88;4974463;28;20037;-79
2022/04/01 08:26:30;;;;;;;7.10;2.85;;;;;;;2.90;69.71;100899.91;4967388;28;20147;-79
2022/04/01 08:28:56;;;;;;;6.68;2.40;;;;;;;2.91;67.37;100887.78;4950621;29;20047;-81
2022/04/01 08:31:22;;;;;;;8.32;2.40;;;;;;;3.03;67.82;100902.59;4967153;28;20054;-78
2022/04/01 08:33:50;;;;;;;8.38;2.55;;;;;;;2.88;68.48;100895.72;4971325;28;20034;-79
2022/04/01 08:36:17;;;;;;;4.55;2.70;;;;;;;3.07;68.31;100914.44;4965671;28;20535;-77
2022/04/01 08:38:43;;;;;;;5.80;2.78;;;;;;;3.29;68.25;100902.72;4964687;28;20514;-78
2022/04/01 08:41:10;;;;;;;5.35;2.28;;;;;;;3.43;66.35;100902.69;4950536;28;20035;-79
2022/04/01 08:43:42;;;;;;;9.65;2.55;;;;;;;3.36;65.77;100909.19;4968974;28;20042;-79
2022/04/01 08:46:09;;;;;;;5.95;2.40;;;;;;;3.32;64.23;100915.50;4977911;28;20269;-80
2022/04/01 08:48:36;;;;;;;5.80;2.50;;;;;;;3.54;65.39;100914.16;4954483;28;20146;-79
2022/04/01 08:51:02;;;;;;;7.75;2.38;;;;;;;3.60;63.79;100921.53;4954283;28;20035;-78
2022/04/01 08:53:28;;;;;;;5.65;2.30;;;;;;;3.16;65.26;100912.19;4952124;28;20194;-79
2022/04/01 08:55:56;;;;;;;7.80;2.55;;;;;;;3.26;65.07;100919.31;4970626;28;20034;-80
2022/04/01 08:58:23;;;;;;;8.52;3.35;;;;;;;3.42;66.34;100926.94;4968007;28;20057;-81
2022/04/01 09:00:52;;;;;;;7.85;2.72;;;;;;;3.18;66.97;100926.72;4965360;28;20042;-80
2022/04/01 09:03:21;;;;;;;5.10;2.72;;;;;;;3.27;66.51;100930.50;4944508;28;20045;-79
2022/04/01 09:05:51;;;;;;;7.30;3.03;;;;;;;3.38;66.36;100929.84;4953149;28;20042;-80
2022/04/01 09:08:25;;;;;;;3.80;2.40;;;;;;;3.52;66.91;100929.78;4936130;28;20177;-80
2022/04/01 09:11:01;;;;;;;5.78;2.45;;;;;;;3.62;65.11;100919.69;4976827;28;20027;-79
2022/04/01 09:13:31;;;;;;;6.45;2.70;;;;;;;3.69;64.99;100913.16;4985860;28;20176;-77
2022/04/01 09:15:57;;;;;;;5.90;2.47;;;;;;;3.36;62.99;100918.75;4958672;28;20038;-80
2022/04/01 09:18:37;;;;;;;6.38;2.53;;;;;;;3.39;63.12;100931.50;4958921;28;20440;-80
2022/04/01 09:21:04;;;;;;;5.50;2.38;;;;;;;3.51;62.38;100925.56;4953491;28;20043;-82
2022/04/01 09:23:30;;;;;;;6.90;3.03;;;;;;;3.76;62.37;100931.78;4968598;28;20046;-80
2022/04/01 09:25:57;;;;;;;5.78;2.50;;;;;;;3.79;60.25;100936.78;4952992;28;20038;-80
2022/04/01 09:28:29;;;;;;;5.65;2.67;;;;;;;3.59;61.11;100936.28;4936409;28;20496;-78
2022/04/01 09:31:15;;;;;;;5.75;2.58;;;;;;;3.86;61.05;100940.63;4934184;28;20129;-79
2022/04/01 09:33:44;;;;;;;7.90;2.75;;;;;;;3.91;60.03;100946.38;4945197;28;20121;-79
2022/04/01 09:36:15;;;;;;;7.28;2.95;;;;;;;3.98;59.59;100928.66;4950911;28;20506;-80
2022/04/01 09:39:04;;;;;;;6.95;2.50;;;;;;;3.93;60.42;100936.72;4970239;28;20039;-81
2022/04/01 09:41:39;;;;;;;4.50;2.13;;;;;;;3.76;59.67;100935.19;4956011;28;20384;-80
2022/04/01 09:44:11;;;;;;;5.85;2.33;;;;;;;3.85;60.14;100944.19;4935386;28;20118;-79
2022/04/01 09:46:46;;;;;;;6.25;2.53;;;;;;;3.77;58.73;100936.03;4955916;28;20607;-79
2022/04/01 09:49:29;;;;;;;5.25;2.22;;;;;;;3.99;59.87;100938.91;4942048;28;20439;-78
2022/04/01 09:51:56;;;;;;;4.32;2.20;;;;;;;4.10;59.38;100940.81;4950665;28;20061;-78
2022/04/01 09:54:24;;;;;;;5.40;2.33;;;;;;;4.11;60.70;100939.91;4966259;28;20419;-78
2022/04/01 09:56:54;;;;;;;6.72;2.22;;;;;;;3.79;60.00;100949.75;4968304;28;20038;-78
2022/04/01 09:59:21;;;;;;;8.52;2.20;;;;;;;3.87;60.13;100948.31;4951029;28;20038;-76
2022/04/01 10:01:48;;;;;;;4.82;2.10;;;;;;;3.80;60.60;100935.84;4954178;28;20480;-79
2022/04/01 10:04:14;;;;;;;5.15;2.10;;;;;;;3.68;61.44;100934.88;4967808;28;20138;-76
2022/04/01 10:06:41;;;;;;;8.70;2.35;;;;;;;3.84;62.61;100939.91;4966789;28;20499;-79
2022/04/01 10:09:10;;;;;;;7.80;2.15;;;;;;;4.11;60.02;100937.31;4937641;28;20039;-78
2022/04/01 10:11:37;;;;;;;6.22;2.25;;;;;;;3.98;60.65;100937.25;4949437;28;20038;-80
2022/04/01 10:14:18;;;;;;;5.38;2.20;;;;;;;3.98;60.65;100939.03;4963439;28;20038;-78
2022/04/01 10:16:46;;;;;;;12.02;2.47;;;;;;;4.15;60.91;100946.56;4952718;28;20441;-78
2022/04/01 10:19:14;;;;;;;4.35;2.13;;;;;;;4.16;60.37;100949.97;4967815;28;20030;-77
2022/04/01 10:21:43;;;;;;;8.68;2.10;;;;;;;4.24;60.56;100940.75;4972500;28;20039;-81
2022/04/01 10:24:47;;;;;;;3.95;2.17;;;;;;;4.65;60.04;100951.91;4936079;28;20114;-78
2022/04/01 10:27:34;;;;;;;5.38;2.00;;;;;;;4.29;58.99;100948.25;4955055;28;20049;-77
2022/04/01 10:30:00;;;;;;;4.55;1.80;;;;;;;3.94;60.80;100950.53;4947111;28;20035;-80
2022/04/01 10:32:36;;;;;;;4.78;1.95;;;;;;;4.39;61.19;100951.91;4967603;28;20047;-78
2022/04/01 10:35:04;;;;;;;5.72;1.92;;;;;;;4.27;58.66;100950.94;4954431;28;20050;-77
2022/04/01 10:37:31;;;;;;;6.15;2.03;;;;;;;4.32;60.09;100958.44;4972797;28;20110;-76
2022/04/01 10:40:17;;;;;;;5.00;1.90;;;;;;;4.09;60.11;100950.38;4972108;28;20038;-77
2022/04/01 10:42:44;;;;;;;6.22;2.05;;;;;;;4.04;60.16;100946.41;4956885;28;20110;-80
2022/04/01 10:45:13;;;;;;;7.03;1.92;;;;;;;4.48;60.03;100948.69;4941249;28;20547;-78
2022/04/01 10:53:45;;;;;;;4.03;1.80;;;;;;;4.37;60.64;100966.75;4971227;28;20046;-78
2022/04/01 10:56:26;;;;;;;5.03;2.00;;;;;;;4.31;59.11;100968.91;4953345;28;20043;-80
2022/04/01 10:59:11;;;;;;;5.22;2.25;;;;;;;4.30;59.57;100965.50;4954346;28;20062;-78
2022/04/01 11:01:42;;;;;;;4.65;2.10;;;;;;;4.32;60.79;100958.44;4985647;28;20047;-77
2022/04/01 11:04:08;;;;;;;6.25;2.00;;;;;;;4.54;60.09;100965.66;4942780;28;20514;-79
2022/04/01 11:06:57;;;;;;;6.15;2.03;;;;;;;4.28;60.74;100963.00;4938823;28;20050;-80
2022/04/01 11:09:44;;;;;;;4.07;1.95;;;;;;;4.69;61.06;100963.78;4951519;28;20130;-78
2022/04/01 11:14:58;;;;;;;7.28;2.10;;;;;;;4.71;59.89;100963.66;4956829;28;20047;-77
2022/04/01 11:17:51;;;;;;;8.43;1.90;;;;;;;4.85;60.13;100956.59;4966330;28;20039;-77
2022/04/01 11:20:21;;;;;;;6.50;2.03;;;;;;;5.00;57.51;100969.50;4961682;28;20860;-78
2022/04/01 11:22:52;;;;;;;3.90;2.03;;;;;;;4.84;57.91;100970.56;4951255;28;20046;-78
2022/04/01 11:25:24;;;;;;;8.13;2.03;;;;;;;4.55;59.00;100961.28;4955150;28;20043;-78
2022/04/01 11:28:02;;;;;;;4.20;1.92;;;;;;;4.51;59.95;100971.03;4950242;28;20126;-79
2022/04/01 11:30:33;;;;;;;5.90;2.10;;;;;;;4.49;59.60;100957.31;4969068;28;20090;-76
2022/04/01 11:33:12;;;;;;;8.13;2.00;;;;;;;4.80;60.44;100965.66;4954892;28;20042;-80
2022/04/01 11:35:40;;;;;;;3.95;1.60;;;;;;;4.88;59.37;100961.59;4969284;28;20031;-78
2022/04/01 11:38:07;;;;;;;7.47;2.05;;;;;;;4.91;60.60;100962.34;4944386;28;20289;-79
2022/04/01 11:40:36;;;;;;;4.88;1.98;;;;;;;5.04;59.62;100965.75;4956095;28;20035;-78
2022/04/01 11:43:06;;;;;;;8.43;2.30;;;;;;;5.31;59.21;100963.00;4938243;28;20046;-78
2022/04/01 11:45:38;;;;;;;4.00;1.80;;;;;;;5.06;58.46;100956.06;4946898;28;20070;-77
2022/04/01 11:48:17;;;;;;;6.82;1.73;;;;;;;5.11;59.98;100964.41;4939309;28;20039;-78
2022/04/01 11:50:47;;;;;;;5.90;2.00;;;;;;;4.91;59.46;100963.16;4969940;28;20035;-76
2022/04/01 11:53:31;;;;;;;6.00;2.05;;;;;;;4.51;60.78;100965.84;4969203;28;20121;-76
2022/04/01 11:56:00;;;;;;;8.55;2.17;;;;;;;4.55;61.87;100948.28;4964582;28;20493;-77
2022/04/01 11:58:27;;;;;;;4.53;2.05;;;;;;;4.84;63.19;100952.38;4953060;28;20037;-77
2022/04/01 12:00:53;;;;;;;7.88;1.95;;;;;;;4.95;62.41;100956.81;4938814;28;20038;-75
2022/04/01 12:03:19;;;;;;;6.63;2.08;;;;;;;4.43;61.59;100939.56;4968554;28;20101;-75
2022/04/01 12:05:46;;;;;;;8.00;2.25;;;;;;;4.22;62.60;100953.00;4964976;28;20026;-77
2022/04/01 12:10:59;;;;;;;4.45;2.10;;;;;;;4.02;63.78;100958.66;4963853;28;20137;-76